sensor_id;sensor_type;location;lat;lon;timestamp;P1;durP1;ratioP1;P2;durP2;ratioP2
92;SDS011;16232;48.800;9.002;2023-12-04T00:02:35;24.77;;;15.13;;
92;SDS011;16232;48.800;9.002;2023-12-04T00:05:23;27.90;;;14.50;;
92;SDS011;16232;48.800;9.002;2023-12-04T00:08:11;23.52;;;14.93;;
92;SDS011;16232;48.800;9.002;2023-12-04T00:10:59;23.65;;;13.20;;
92;SDS011;16232;48.800;9.002;2023-12-04T00:13:46;23.20;;;14.30;;
92;SDS011;16232;48.800;9.002;2023-12-04T00:16:34;27.42;;;14.98;;
92;SDS011;16232;48.800;9.002;2023-12-04T00:19:23;22.48;;;14.25;;
92;SDS011;16232;48.800;9.002;2023-12-04T00:22:11;26.25;;;14.90;;
92;SDS011;16232;48.800;9.002;2023-12-04T00:24:58;24.45;;;14.63;;
92;SDS011;16232;48.800;9.002;2023-12-04T00:27:46;22.83;;;14.68;;
92;SDS011;16232;48.800;9.002;2023-12-04T00:30:34;26.50;;;15.02;;
92;SDS011;16232;48.800;9.002;2023-12-04T00:33:21;24.55;;;14.95;;
92;SDS011;16232;48.800;9.002;2023-12-04T00:36:11;21.42;;;13.48;;
92;SDS011;16232;48.800;9.002;2023-12-04T00:38:58;22.40;;;13.40;;
92;SDS011;16232;48.800;9.002;2023-12-04T00:41:46;25.30;;;14.27;;
92;SDS011;16232;48.800;9.002;2023-12-04T00:44:34;22.30;;;13.50;;
92;SDS011;16232;48.800;9.002;2023-12-04T00:47:21;22.25;;;13.68;;
92;SDS011;16232;48.800;9.002;2023-12-04T00:50:10;22.75;;;12.93;;
92;SDS011;16232;48.800;9.002;2023-12-04T00:52:59;26.23;;;14.68;;
92;SDS011;16232;48.800;9.002;2023-12-04T00:55:47;20.50;;;13.75;;
92;SDS011;16232;48.800;9.002;2023-12-04T00:58:35;25.40;;;13.90;;
92;SDS011;16232;48.800;9.002;2023-12-04T01:01:23;24.35;;;13.75;;
92;SDS011;16232;48.800;9.002;2023-12-04T01:04:10;21.48;;;14.07;;
92;SDS011;16232;48.800;9.002;2023-12-04T01:06:58;21.23;;;12.70;;
92;SDS011;16232;48.800;9.002;2023-12-04T01:09:47;21.73;;;13.15;;
92;SDS011;16232;48.800;9.002;2023-12-04T01:12:35;22.83;;;12.55;;
92;SDS011;16232;48.800;9.002;2023-12-04T01:15:23;21.98;;;13.98;;
92;SDS011;16232;48.800;9.002;2023-12-04T01:18:10;23.98;;;13.52;;
92;SDS011;16232;48.800;9.002;2023-12-04T01:20:58;28.05;;;15.85;;
92;SDS011;16232;48.800;9.002;2023-12-04T01:23:46;29.35;;;15.68;;
92;SDS011;16232;48.800;9.002;2023-12-04T01:26:35;24.73;;;15.18;;
92;SDS011;16232;48.800;9.002;2023-12-04T01:29:23;24.60;;;14.50;;
92;SDS011;16232;48.800;9.002;2023-12-04T01:32:11;24.10;;;14.57;;
92;SDS011;16232;48.800;9.002;2023-12-04T01:34:58;26.95;;;15.98;;
92;SDS011;16232;48.800;9.002;2023-12-04T01:37:46;25.33;;;14.90;;
92;SDS011;16232;48.800;9.002;2023-12-04T01:40:34;28.35;;;15.45;;
92;SDS011;16232;48.800;9.002;2023-12-04T01:43:23;21.75;;;14.00;;
92;SDS011;16232;48.800;9.002;2023-12-04T01:46:10;23.98;;;14.48;;
92;SDS011;16232;48.800;9.002;2023-12-04T01:48:58;22.67;;;14.40;;
92;SDS011;16232;48.800;9.002;2023-12-04T01:51:48;22.23;;;14.57;;
92;SDS011;16232;48.800;9.002;2023-12-04T01:54:36;22.05;;;13.48;;
92;SDS011;16232;48.800;9.002;2023-12-04T01:57:23;25.33;;;14.82;;
92;SDS011;16232;48.800;9.002;2023-12-04T02:00:13;27.23;;;15.55;;
92;SDS011;16232;48.800;9.002;2023-12-04T02:03:01;26.98;;;15.32;;
92;SDS011;16232;48.800;9.002;2023-12-04T02:05:48;23.15;;;13.60;;
92;SDS011;16232;48.800;9.002;2023-12-04T02:08:38;24.35;;;14.68;;
92;SDS011;16232;48.800;9.002;2023-12-04T02:11:27;27.77;;;14.98;;
92;SDS011;16232;48.800;9.002;2023-12-04T02:14:14;25.25;;;13.40;;
92;SDS011;16232;48.800;9.002;2023-12-04T02:17:04;20.35;;;12.98;;
92;SDS011;16232;48.800;9.002;2023-12-04T02:19:52;22.90;;;13.38;;
92;SDS011;16232;48.800;9.002;2023-12-04T02:22:41;22.15;;;13.13;;
92;SDS011;16232;48.800;9.002;2023-12-04T02:25:30;24.35;;;13.82;;
92;SDS011;16232;48.800;9.002;2023-12-04T02:28:17;25.20;;;13.88;;
92;SDS011;16232;48.800;9.002;2023-12-04T02:31:05;22.20;;;13.38;;
92;SDS011;16232;48.800;9.002;2023-12-04T02:33:55;23.33;;;13.93;;
92;SDS011;16232;48.800;9.002;2023-12-04T02:36:43;26.40;;;15.30;;
92;SDS011;16232;48.800;9.002;2023-12-04T02:39:30;26.23;;;14.38;;
92;SDS011;16232;48.800;9.002;2023-12-04T02:42:20;25.77;;;15.40;;
92;SDS011;16232;48.800;9.002;2023-12-04T02:45:07;31.02;;;16.13;;
92;SDS011;16232;48.800;9.002;2023-12-04T02:47:55;31.90;;;16.65;;
92;SDS011;16232;48.800;9.002;2023-12-04T02:50:43;27.73;;;15.40;;
92;SDS011;16232;48.800;9.002;2023-12-04T02:53:30;28.92;;;16.10;;
92;SDS011;16232;48.800;9.002;2023-12-04T02:56:18;27.02;;;15.05;;
92;SDS011;16232;48.800;9.002;2023-12-04T02:59:07;26.00;;;16.10;;
92;SDS011;16232;48.800;9.002;2023-12-04T03:01:55;25.38;;;14.43;;
92;SDS011;16232;48.800;9.002;2023-12-04T03:04:42;24.70;;;15.68;;
92;SDS011;16232;48.800;9.002;2023-12-04T03:07:30;28.90;;;15.88;;
92;SDS011;16232;48.800;9.002;2023-12-04T03:10:18;26.02;;;14.55;;
92;SDS011;16232;48.800;9.002;2023-12-04T03:13:05;25.23;;;13.88;;
92;SDS011;16232;48.800;9.002;2023-12-04T03:15:54;21.88;;;13.48;;
92;SDS011;16232;48.800;9.002;2023-12-04T03:18:42;24.42;;;13.93;;
92;SDS011;16232;48.800;9.002;2023-12-04T03:21:29;22.30;;;13.35;;
92;SDS011;16232;48.800;9.002;2023-12-04T03:24:17;25.50;;;14.52;;
92;SDS011;16232;48.800;9.002;2023-12-04T03:27:07;24.45;;;13.50;;
92;SDS011;16232;48.800;9.002;2023-12-04T03:29:55;24.20;;;14.48;;
92;SDS011;16232;48.800;9.002;2023-12-04T03:32:44;23.45;;;13.95;;
92;SDS011;16232;48.800;9.002;2023-12-04T03:35:32;25.67;;;14.13;;
92;SDS011;16232;48.800;9.002;2023-12-04T03:38:19;22.83;;;13.55;;
92;SDS011;16232;48.800;9.002;2023-12-04T03:41:12;20.38;;;12.80;;
92;SDS011;16232;48.800;9.002;2023-12-04T03:44:00;26.20;;;14.35;;
92;SDS011;16232;48.800;9.002;2023-12-04T03:46:48;20.50;;;13.10;;
92;SDS011;16232;48.800;9.002;2023-12-04T03:49:37;22.27;;;13.70;;
92;SDS011;16232;48.800;9.002;2023-12-04T03:52:25;22.30;;;12.88;;
92;SDS011;16232;48.800;9.002;2023-12-04T03:55:12;18.83;;;12.02;;
92;SDS011;16232;48.800;9.002;2023-12-04T03:58:00;23.10;;;12.18;;
92;SDS011;16232;48.800;9.002;2023-12-04T04:00:48;20.25;;;12.80;;
92;SDS011;16232;48.800;9.002;2023-12-04T04:03:35;21.48;;;12.40;;
92;SDS011;16232;48.800;9.002;2023-12-04T04:06:24;22.15;;;11.88;;
92;SDS011;16232;48.800;9.002;2023-12-04T04:09:12;22.90;;;13.10;;
92;SDS011;16232;48.800;9.002;2023-12-04T04:11:59;22.58;;;12.20;;
92;SDS011;16232;48.800;9.002;2023-12-04T04:14:47;21.38;;;13.25;;
92;SDS011;16232;48.800;9.002;2023-12-04T04:17:35;22.85;;;12.85;;
92;SDS011;16232;48.800;9.002;2023-12-04T04:20:22;21.98;;;12.82;;
92;SDS011;16232;48.800;9.002;2023-12-04T04:23:11;18.17;;;11.43;;
92;SDS011;16232;48.800;9.002;2023-12-04T04:25:59;20.70;;;11.77;;
92;SDS011;16232;48.800;9.002;2023-12-04T04:28:47;19.85;;;11.73;;
92;SDS011;16232;48.800;9.002;2023-12-04T04:31:35;18.95;;;11.70;;
92;SDS011;16232;48.800;9.002;2023-12-04T04:34:22;25.52;;;12.07;;
92;SDS011;16232;48.800;9.002;2023-12-04T04:37:10;19.63;;;11.43;;
92;SDS011;16232;48.800;9.002;2023-12-04T04:39:59;21.45;;;11.40;;
92;SDS011;16232;48.800;9.002;2023-12-04T04:42:47;17.30;;;10.55;;
92;SDS011;16232;48.800;9.002;2023-12-04T04:45:34;19.33;;;10.50;;
92;SDS011;16232;48.800;9.002;2023-12-04T04:48:22;20.35;;;9.82;;
92;SDS011;16232;48.800;9.002;2023-12-04T04:51:10;17.02;;;10.30;;
92;SDS011;16232;48.800;9.002;2023-12-04T04:53:57;14.82;;;9.48;;
92;SDS011;16232;48.800;9.002;2023-12-04T04:56:46;16.40;;;9.88;;
92;SDS011;16232;48.800;9.002;2023-12-04T04:59:34;15.27;;;9.25;;
92;SDS011;16232;48.800;9.002;2023-12-04T05:02:22;14.32;;;8.52;;
92;SDS011;16232;48.800;9.002;2023-12-04T05:05:09;13.73;;;8.60;;
92;SDS011;16232;48.800;9.002;2023-12-04T05:07:57;14.30;;;8.95;;
92;SDS011;16232;48.800;9.002;2023-12-04T05:10:44;13.68;;;8.68;;
92;SDS011;16232;48.800;9.002;2023-12-04T05:13:33;12.05;;;8.27;;
92;SDS011;16232;48.800;9.002;2023-12-04T05:16:21;11.60;;;7.57;;
92;SDS011;16232;48.800;9.002;2023-12-04T05:19:09;12.88;;;7.75;;
92;SDS011;16232;48.800;9.002;2023-12-04T05:21:56;12.23;;;7.38;;
92;SDS011;16232;48.800;9.002;2023-12-04T05:24:44;10.73;;;7.70;;
92;SDS011;16232;48.800;9.002;2023-12-04T05:27:32;12.10;;;8.45;;
92;SDS011;16232;48.800;9.002;2023-12-04T05:30:21;14.17;;;8.70;;
92;SDS011;16232;48.800;9.002;2023-12-04T05:33:08;11.48;;;7.57;;
92;SDS011;16232;48.800;9.002;2023-12-04T05:35:56;13.43;;;8.15;;
92;SDS011;16232;48.800;9.002;2023-12-04T05:38:44;12.25;;;7.45;;
92;SDS011;16232;48.800;9.002;2023-12-04T05:41:31;13.07;;;7.85;;
92;SDS011;16232;48.800;9.002;2023-12-04T05:44:19;12.23;;;8.25;;
92;SDS011;16232;48.800;9.002;2023-12-04T05:47:08;13.33;;;8.63;;
92;SDS011;16232;48.800;9.002;2023-12-04T05:49:55;11.43;;;8.02;;
92;SDS011;16232;48.800;9.002;2023-12-04T05:52:43;12.38;;;7.80;;
92;SDS011;16232;48.800;9.002;2023-12-04T05:55:31;12.23;;;7.93;;
92;SDS011;16232;48.800;9.002;2023-12-04T05:58:18;12.35;;;7.90;;
92;SDS011;16232;48.800;9.002;2023-12-04T06:01:06;12.07;;;7.05;;
92;SDS011;16232;48.800;9.002;2023-12-04T06:03:55;11.10;;;7.32;;
92;SDS011;16232;48.800;9.002;2023-12-04T06:06:43;10.82;;;6.93;;
92;SDS011;16232;48.800;9.002;2023-12-04T06:09:30;9.82;;;6.78;;
92;SDS011;16232;48.800;9.002;2023-12-04T06:12:18;11.90;;;7.43;;
92;SDS011;16232;48.800;9.002;2023-12-04T06:15:06;11.38;;;6.80;;
92;SDS011;16232;48.800;9.002;2023-12-04T06:17:54;11.25;;;7.03;;
92;SDS011;16232;48.800;9.002;2023-12-04T06:20:43;11.77;;;7.20;;
92;SDS011;16232;48.800;9.002;2023-12-04T06:23:30;12.77;;;7.53;;
92;SDS011;16232;48.800;9.002;2023-12-04T06:26:18;10.27;;;6.93;;
92;SDS011;16232;48.800;9.002;2023-12-04T06:29:06;11.93;;;7.95;;
92;SDS011;16232;48.800;9.002;2023-12-04T06:31:54;12.77;;;8.13;;
92;SDS011;16232;48.800;9.002;2023-12-04T06:34:42;13.00;;;8.15;;
92;SDS011;16232;48.800;9.002;2023-12-04T06:37:32;14.00;;;8.70;;
92;SDS011;16232;48.800;9.002;2023-12-04T06:40:20;13.57;;;8.70;;
92;SDS011;16232;48.800;9.002;2023-12-04T06:43:08;13.87;;;9.23;;
92;SDS011;16232;48.800;9.002;2023-12-04T06:45:56;13.17;;;8.87;;
92;SDS011;16232;48.800;9.002;2023-12-04T06:48:44;11.63;;;8.55;;
92;SDS011;16232;48.800;9.002;2023-12-04T06:51:32;13.67;;;9.90;;
92;SDS011;16232;48.800;9.002;2023-12-04T06:54:21;16.33;;;9.77;;
92;SDS011;16232;48.800;9.002;2023-12-04T06:57:08;15.35;;;9.80;;
92;SDS011;16232;48.800;9.002;2023-12-04T06:59:56;14.93;;;9.67;;
92;SDS011;16232;48.800;9.002;2023-12-04T07:02:44;14.93;;;9.13;;
92;SDS011;16232;48.800;9.002;2023-12-04T07:05:31;16.50;;;9.82;;
92;SDS011;16232;48.800;9.002;2023-12-04T07:08:19;16.97;;;10.60;;
92;SDS011;16232;48.800;9.002;2023-12-04T07:11:08;17.33;;;11.33;;
92;SDS011;16232;48.800;9.002;2023-12-04T07:13:56;15.52;;;10.52;;
92;SDS011;16232;48.800;9.002;2023-12-04T07:16:43;14.73;;;9.15;;
92;SDS011;16232;48.800;9.002;2023-12-04T07:19:31;12.13;;;8.93;;
92;SDS011;16232;48.800;9.002;2023-12-04T07:22:19;16.07;;;9.63;;
92;SDS011;16232;48.800;9.002;2023-12-04T07:25:07;17.20;;;9.83;;
92;SDS011;16232;48.800;9.002;2023-12-04T07:27:56;16.33;;;10.27;;
92;SDS011;16232;48.800;9.002;2023-12-04T07:30:44;19.70;;;11.17;;
92;SDS011;16232;48.800;9.002;2023-12-04T07:33:32;15.07;;;10.33;;
92;SDS011;16232;48.800;9.002;2023-12-04T07:36:19;13.37;;;8.47;;
92;SDS011;16232;48.800;9.002;2023-12-04T07:39:07;11.97;;;7.93;;
92;SDS011;16232;48.800;9.002;2023-12-04T07:41:56;14.33;;;7.63;;
92;SDS011;16232;48.800;9.002;2023-12-04T07:44:45;10.00;;;7.10;;
92;SDS011;16232;48.800;9.002;2023-12-04T07:47:33;11.27;;;7.23;;
92;SDS011;16232;48.800;9.002;2023-12-04T07:50:20;10.47;;;7.43;;
92;SDS011;16232;48.800;9.002;2023-12-04T07:53:09;10.07;;;6.97;;
92;SDS011;16232;48.800;9.002;2023-12-04T07:55:57;10.00;;;6.70;;
92;SDS011;16232;48.800;9.002;2023-12-04T07:58:48;11.60;;;7.03;;
92;SDS011;16232;48.800;9.002;2023-12-04T08:01:41;9.80;;;6.57;;
92;SDS011;16232;48.800;9.002;2023-12-04T08:04:30;9.50;;;6.87;;
92;SDS011;16232;48.800;9.002;2023-12-04T08:07:17;10.37;;;6.40;;
92;SDS011;16232;48.800;9.002;2023-12-04T08:10:06;12.17;;;6.77;;
92;SDS011;16232;48.800;9.002;2023-12-04T08:12:54;11.77;;;8.00;;
92;SDS011;16232;48.800;9.002;2023-12-04T08:15:41;9.73;;;7.30;;
92;SDS011;16232;48.800;9.002;2023-12-04T08:18:31;11.77;;;8.27;;
92;SDS011;16232;48.800;9.002;2023-12-04T08:21:19;10.87;;;7.77;;
92;SDS011;16232;48.800;9.002;2023-12-04T08:24:06;51.10;;;17.50;;
92;SDS011;16232;48.800;9.002;2023-12-04T08:26:56;25.67;;;11.27;;
92;SDS011;16232;48.800;9.002;2023-12-04T08:29:43;17.27;;;9.77;;
92;SDS011;16232;48.800;9.002;2023-12-04T08:32:31;21.03;;;11.00;;
92;SDS011;16232;48.800;9.002;2023-12-04T08:35:20;33.00;;;16.47;;
92;SDS011;16232;48.800;9.002;2023-12-04T08:38:08;10.40;;;8.00;;
92;SDS011;16232;48.800;9.002;2023-12-04T08:40:56;20.57;;;10.73;;
92;SDS011;16232;48.800;9.002;2023-12-04T08:43:44;21.17;;;11.83;;
92;SDS011;16232;48.800;9.002;2023-12-04T08:46:31;16.83;;;8.20;;
92;SDS011;16232;48.800;9.002;2023-12-04T08:49:19;11.33;;;7.07;;
92;SDS011;16232;48.800;9.002;2023-12-04T08:52:08;12.20;;;6.70;;
92;SDS011;16232;48.800;9.002;2023-12-04T08:54:55;9.77;;;6.13;;
92;SDS011;16232;48.800;9.002;2023-12-04T08:57:43;9.90;;;7.33;;
92;SDS011;16232;48.800;9.002;2023-12-04T09:00:31;9.83;;;7.20;;
92;SDS011;16232;48.800;9.002;2023-12-04T09:03:21;10.87;;;7.53;;
92;SDS011;16232;48.800;9.002;2023-12-04T09:06:09;13.67;;;7.30;;
92;SDS011;16232;48.800;9.002;2023-12-04T09:08:58;8.63;;;6.47;;
92;SDS011;16232;48.800;9.002;2023-12-04T09:11:46;11.57;;;7.90;;
92;SDS011;16232;48.800;9.002;2023-12-04T09:14:34;13.50;;;8.30;;
92;SDS011;16232;48.800;9.002;2023-12-04T09:17:22;10.60;;;6.83;;
92;SDS011;16232;48.800;9.002;2023-12-04T09:20:09;11.60;;;8.10;;
92;SDS011;16232;48.800;9.002;2023-12-04T09:22:57;8.53;;;7.13;;
92;SDS011;16232;48.800;9.002;2023-12-04T09:25:46;11.23;;;7.83;;
92;SDS011;16232;48.800;9.002;2023-12-04T09:28:35;11.47;;;8.17;;
92;SDS011;16232;48.800;9.002;2023-12-04T09:31:23;11.60;;;8.00;;
92;SDS011;16232;48.800;9.002;2023-12-04T09:34:10;12.23;;;8.40;;
92;SDS011;16232;48.800;9.002;2023-12-04T09:36:58;10.20;;;8.10;;
92;SDS011;16232;48.800;9.002;2023-12-04T09:39:45;10.10;;;7.70;;
92;SDS011;16232;48.800;9.002;2023-12-04T09:42:36;12.63;;;8.20;;
92;SDS011;16232;48.800;9.002;2023-12-04T09:45:24;11.47;;;8.47;;
92;SDS011;16232;48.800;9.002;2023-12-04T09:48:11;10.87;;;7.07;;
92;SDS011;16232;48.800;9.002;2023-12-04T09:50:59;11.60;;;7.10;;
92;SDS011;16232;48.800;9.002;2023-12-04T09:53:47;11.60;;;8.33;;
92;SDS011;16232;48.800;9.002;2023-12-04T09:56:35;11.53;;;7.60;;
92;SDS011;16232;48.800;9.002;2023-12-04T09:59:25;12.00;;;8.53;;
92;SDS011;16232;48.800;9.002;2023-12-04T10:02:14;11.17;;;7.77;;
92;SDS011;16232;48.800;9.002;2023-12-04T10:04:42;11.50;;;8.30;;
92;SDS011;16232;48.800;9.002;2023-12-04T10:07:10;10.87;;;7.60;;
92;SDS011;16232;48.800;9.002;2023-12-04T10:09:37;11.73;;;7.57;;
92;SDS011;16232;48.800;9.002;2023-12-04T10:12:05;11.33;;;7.60;;
92;SDS011;16232;48.800;9.002;2023-12-04T10:14:34;12.33;;;8.07;;
92;SDS011;16232;48.800;9.002;2023-12-04T10:17:13;12.43;;;8.03;;
92;SDS011;16232;48.800;9.002;2023-12-04T10:19:40;11.80;;;8.40;;
92;SDS011;16232;48.800;9.002;2023-12-04T10:22:08;12.67;;;8.57;;
92;SDS011;16232;48.800;9.002;2023-12-04T10:24:37;10.27;;;7.73;;
92;SDS011;16232;48.800;9.002;2023-12-04T10:27:05;10.10;;;7.80;;
92;SDS011;16232;48.800;9.002;2023-12-04T10:29:42;9.70;;;7.37;;
92;SDS011;16232;48.800;9.002;2023-12-04T10:32:11;10.67;;;7.50;;
92;SDS011;16232;48.800;9.002;2023-12-04T10:34:38;10.83;;;7.63;;
92;SDS011;16232;48.800;9.002;2023-12-04T10:37:08;11.60;;;8.80;;
92;SDS011;16232;48.800;9.002;2023-12-04T10:39:45;10.40;;;7.63;;
92;SDS011;16232;48.800;9.002;2023-12-04T10:42:16;10.00;;;7.63;;
92;SDS011;16232;48.800;9.002;2023-12-04T10:44:51;10.77;;;7.80;;
92;SDS011;16232;48.800;9.002;2023-12-04T10:47:19;9.07;;;7.30;;
92;SDS011;16232;48.800;9.002;2023-12-04T10:49:47;10.27;;;7.83;;
92;SDS011;16232;48.800;9.002;2023-12-04T10:52:16;9.63;;;7.47;;
92;SDS011;16232;48.800;9.002;2023-12-04T10:54:45;11.93;;;8.00;;
92;SDS011;16232;48.800;9.002;2023-12-04T10:57:12;11.03;;;7.70;;
92;SDS011;16232;48.800;9.002;2023-12-04T10:59:40;10.07;;;7.43;;
92;SDS011;16232;48.800;9.002;2023-12-04T11:02:09;10.40;;;7.50;;
92;SDS011;16232;48.800;9.002;2023-12-04T11:04:41;11.13;;;8.37;;
92;SDS011;16232;48.800;9.002;2023-12-04T11:07:09;10.67;;;7.97;;
92;SDS011;16232;48.800;9.002;2023-12-04T11:09:39;8.63;;;6.90;;
92;SDS011;16232;48.800;9.002;2023-12-04T11:12:08;10.60;;;7.03;;
92;SDS011;16232;48.800;9.002;2023-12-04T11:14:39;11.13;;;7.37;;
92;SDS011;16232;48.800;9.002;2023-12-04T11:17:12;9.87;;;7.60;;
92;SDS011;16232;48.800;9.002;2023-12-04T11:19:43;11.20;;;7.30;;
92;SDS011;16232;48.800;9.002;2023-12-04T11:22:12;10.33;;;7.33;;
92;SDS011;16232;48.800;9.002;2023-12-04T11:24:43;10.20;;;6.80;;
92;SDS011;16232;48.800;9.002;2023-12-04T11:27:10;10.03;;;7.23;;
92;SDS011;16232;48.800;9.002;2023-12-04T11:29:46;8.77;;;6.67;;
92;SDS011;16232;48.800;9.002;2023-12-04T11:32:14;9.57;;;6.83;;
92;SDS011;16232;48.800;9.002;2023-12-04T11:34:48;7.40;;;6.20;;
92;SDS011;16232;48.800;9.002;2023-12-04T11:37:15;8.30;;;6.53;;
92;SDS011;16232;48.800;9.002;2023-12-04T11:39:45;8.70;;;6.30;;
92;SDS011;16232;48.800;9.002;2023-12-04T11:42:14;10.60;;;7.53;;
92;SDS011;16232;48.800;9.002;2023-12-04T11:44:48;9.80;;;7.23;;
92;SDS011;16232;48.800;9.002;2023-12-04T11:47:16;10.27;;;7.63;;
92;SDS011;16232;48.800;9.002;2023-12-04T11:49:43;11.80;;;8.30;;
92;SDS011;16232;48.800;9.002;2023-12-04T11:52:12;10.93;;;8.73;;
92;SDS011;16232;48.800;9.002;2023-12-04T11:54:55;12.30;;;8.67;;
92;SDS011;16232;48.800;9.002;2023-12-04T11:57:23;14.87;;;10.13;;
92;SDS011;16232;48.800;9.002;2023-12-04T11:59:53;12.47;;;8.63;;
92;SDS011;16232;48.800;9.002;2023-12-04T12:02:31;12.43;;;9.20;;
92;SDS011;16232;48.800;9.002;2023-12-04T12:04:58;12.57;;;8.50;;
92;SDS011;16232;48.800;9.002;2023-12-04T12:07:27;10.67;;;8.57;;
92;SDS011;16232;48.800;9.002;2023-12-04T12:09:54;12.53;;;9.77;;
92;SDS011;16232;48.800;9.002;2023-12-04T12:12:22;11.73;;;8.63;;
92;SDS011;16232;48.800;9.002;2023-12-04T12:14:50;13.70;;;10.47;;
92;SDS011;16232;48.800;9.002;2023-12-04T12:17:22;13.30;;;9.93;;
92;SDS011;16232;48.800;9.002;2023-12-04T12:19:50;12.47;;;8.80;;
92;SDS011;16232;48.800;9.002;2023-12-04T12:22:17;12.70;;;9.07;;
92;SDS011;16232;48.800;9.002;2023-12-04T12:24:45;12.13;;;8.40;;
92;SDS011;16232;48.800;9.002;2023-12-04T12:27:12;10.10;;;8.17;;
92;SDS011;16232;48.800;9.002;2023-12-04T12:29:40;10.80;;;8.03;;
92;SDS011;16232;48.800;9.002;2023-12-04T12:32:07;13.80;;;10.03;;
92;SDS011;16232;48.800;9.002;2023-12-04T12:34:36;13.27;;;9.23;;
92;SDS011;16232;48.800;9.002;2023-12-04T12:37:03;12.97;;;9.90;;
92;SDS011;16232;48.800;9.002;2023-12-04T12:39:31;14.07;;;9.40;;
92;SDS011;16232;48.800;9.002;2023-12-04T12:41:58;12.30;;;9.00;;
92;SDS011;16232;48.800;9.002;2023-12-04T12:44:26;11.17;;;9.07;;
92;SDS011;16232;48.800;9.002;2023-12-04T12:46:54;16.07;;;10.60;;
92;SDS011;16232;48.800;9.002;2023-12-04T12:49:21;14.73;;;10.03;;
92;SDS011;16232;48.800;9.002;2023-12-04T12:51:50;18.77;;;11.93;;
92;SDS011;16232;48.800;9.002;2023-12-04T12:54:17;19.70;;;13.07;;
92;SDS011;16232;48.800;9.002;2023-12-04T12:56:50;21.23;;;13.00;;
92;SDS011;16232;48.800;9.002;2023-12-04T12:59:18;18.63;;;12.67;;
92;SDS011;16232;48.800;9.002;2023-12-04T13:01:47;20.70;;;13.30;;
92;SDS011;16232;48.800;9.002;2023-12-04T13:04:15;15.10;;;11.53;;
92;SDS011;16232;48.800;9.002;2023-12-04T13:06:42;12.17;;;10.07;;
92;SDS011;16232;48.800;9.002;2023-12-04T13:09:11;14.50;;;10.47;;
92;SDS011;16232;48.800;9.002;2023-12-04T13:11:43;12.37;;;10.33;;
92;SDS011;16232;48.800;9.002;2023-12-04T13:14:10;14.27;;;11.27;;
92;SDS011;16232;48.800;9.002;2023-12-04T13:16:38;15.10;;;10.13;;
92;SDS011;16232;48.800;9.002;2023-12-04T13:19:05;15.17;;;10.30;;
92;SDS011;16232;48.800;9.002;2023-12-04T13:21:32;14.60;;;10.93;;
92;SDS011;16232;48.800;9.002;2023-12-04T13:24:00;19.47;;;13.93;;
92;SDS011;16232;48.800;9.002;2023-12-04T13:26:33;18.73;;;12.87;;
92;SDS011;16232;48.800;9.002;2023-12-04T13:29:00;19.37;;;12.97;;
92;SDS011;16232;48.800;9.002;2023-12-04T13:31:28;20.83;;;15.70;;
92;SDS011;16232;48.800;9.002;2023-12-04T13:33:56;18.40;;;13.90;;
92;SDS011;16232;48.800;9.002;2023-12-04T13:36:23;17.67;;;13.50;;
92;SDS011;16232;48.800;9.002;2023-12-04T13:38:52;15.93;;;13.03;;
92;SDS011;16232;48.800;9.002;2023-12-04T13:41:19;9.27;;;6.57;;
92;SDS011;16232;48.800;9.002;2023-12-04T13:44:02;14.17;;;8.83;;
92;SDS011;16232;48.800;9.002;2023-12-04T13:46:30;13.87;;;10.10;;
92;SDS011;16232;48.800;9.002;2023-12-04T13:48:58;17.17;;;11.10;;
92;SDS011;16232;48.800;9.002;2023-12-04T13:51:26;14.70;;;11.07;;
92;SDS011;16232;48.800;9.002;2023-12-04T13:53:53;13.27;;;10.90;;
92;SDS011;16232;48.800;9.002;2023-12-04T13:56:28;15.47;;;9.07;;
92;SDS011;16232;48.800;9.002;2023-12-04T13:59:09;13.23;;;10.60;;
92;SDS011;16232;48.800;9.002;2023-12-04T14:01:44;12.50;;;8.20;;
92;SDS011;16232;48.800;9.002;2023-12-04T14:04:11;12.00;;;8.83;;
92;SDS011;16232;48.800;9.002;2023-12-04T14:06:39;12.20;;;7.97;;
92;SDS011;16232;48.800;9.002;2023-12-04T14:09:06;11.00;;;7.50;;
92;SDS011;16232;48.800;9.002;2023-12-04T14:11:35;8.83;;;6.43;;
92;SDS011;16232;48.800;9.002;2023-12-04T14:14:03;10.50;;;7.30;;
92;SDS011;16232;48.800;9.002;2023-12-04T14:16:31;9.80;;;6.93;;
92;SDS011;16232;48.800;9.002;2023-12-04T14:18:59;14.27;;;8.17;;
92;SDS011;16232;48.800;9.002;2023-12-04T14:21:27;10.67;;;7.57;;
92;SDS011;16232;48.800;9.002;2023-12-04T14:23:54;9.93;;;7.63;;
92;SDS011;16232;48.800;9.002;2023-12-04T14:26:22;10.60;;;7.50;;
92;SDS011;16232;48.800;9.002;2023-12-04T14:28:49;10.37;;;7.57;;
92;SDS011;16232;48.800;9.002;2023-12-04T14:31:17;9.80;;;7.13;;
92;SDS011;16232;48.800;9.002;2023-12-04T14:33:46;10.10;;;7.20;;
92;SDS011;16232;48.800;9.002;2023-12-04T14:36:14;7.70;;;5.23;;
92;SDS011;16232;48.800;9.002;2023-12-04T14:38:42;11.00;;;6.73;;
92;SDS011;16232;48.800;9.002;2023-12-04T14:41:09;10.00;;;7.13;;
92;SDS011;16232;48.800;9.002;2023-12-04T14:43:37;8.23;;;6.40;;
92;SDS011;16232;48.800;9.002;2023-12-04T14:46:04;9.30;;;6.90;;
92;SDS011;16232;48.800;9.002;2023-12-04T14:48:33;9.57;;;6.03;;
92;SDS011;16232;48.800;9.002;2023-12-04T14:51:03;8.23;;;6.83;;
92;SDS011;16232;48.800;9.002;2023-12-04T14:53:30;10.23;;;6.50;;
92;SDS011;16232;48.800;9.002;2023-12-04T14:56:09;9.77;;;6.00;;
92;SDS011;16232;48.800;9.002;2023-12-04T14:58:57;7.37;;;5.60;;
92;SDS011;16232;48.800;9.002;2023-12-04T15:01:38;8.83;;;6.03;;
92;SDS011;16232;48.800;9.002;2023-12-04T15:04:28;6.87;;;5.63;;
92;SDS011;16232;48.800;9.002;2023-12-04T15:07:14;5.63;;;4.53;;
92;SDS011;16232;48.800;9.002;2023-12-04T15:10:01;9.27;;;7.03;;
92;SDS011;16232;48.800;9.002;2023-12-04T15:12:46;10.67;;;6.40;;
92;SDS011;16232;48.800;9.002;2023-12-04T15:15:27;8.03;;;5.83;;
92;SDS011;16232;48.800;9.002;2023-12-04T15:18:05;8.57;;;5.67;;
92;SDS011;16232;48.800;9.002;2023-12-04T15:20:50;7.60;;;6.17;;
92;SDS011;16232;48.800;9.002;2023-12-04T15:23:19;8.13;;;6.03;;
92;SDS011;16232;48.800;9.002;2023-12-04T15:25:47;8.07;;;6.57;;
92;SDS011;16232;48.800;9.002;2023-12-04T15:28:14;9.50;;;6.03;;
92;SDS011;16232;48.800;9.002;2023-12-04T15:30:41;12.83;;;6.57;;
92;SDS011;16232;48.800;9.002;2023-12-04T15:33:09;8.80;;;5.10;;
92;SDS011;16232;48.800;9.002;2023-12-04T15:35:37;6.93;;;5.53;;
92;SDS011;16232;48.800;9.002;2023-12-04T15:38:03;7.20;;;5.83;;
92;SDS011;16232;48.800;9.002;2023-12-04T15:40:32;7.50;;;5.57;;
92;SDS011;16232;48.800;9.002;2023-12-04T15:42:59;8.67;;;6.33;;
92;SDS011;16232;48.800;9.002;2023-12-04T15:45:26;9.43;;;6.87;;
92;SDS011;16232;48.800;9.002;2023-12-04T15:47:54;7.73;;;6.37;;
92;SDS011;16232;48.800;9.002;2023-12-04T15:50:21;8.07;;;6.43;;
92;SDS011;16232;48.800;9.002;2023-12-04T15:52:48;11.03;;;6.13;;
92;SDS011;16232;48.800;9.002;2023-12-04T15:55:15;8.20;;;6.43;;
92;SDS011;16232;48.800;9.002;2023-12-04T15:57:43;7.97;;;6.80;;
92;SDS011;16232;48.800;9.002;2023-12-04T16:00:11;8.73;;;6.27;;
92;SDS011;16232;48.800;9.002;2023-12-04T16:02:38;9.40;;;5.77;;
92;SDS011;16232;48.800;9.002;2023-12-04T16:05:06;7.03;;;5.50;;
92;SDS011;16232;48.800;9.002;2023-12-04T16:07:35;9.67;;;5.43;;
92;SDS011;16232;48.800;9.002;2023-12-04T16:10:03;8.20;;;5.80;;
92;SDS011;16232;48.800;9.002;2023-12-04T16:12:31;7.70;;;5.80;;
92;SDS011;16232;48.800;9.002;2023-12-04T16:15:00;6.90;;;5.27;;
92;SDS011;16232;48.800;9.002;2023-12-04T16:17:28;7.77;;;5.00;;
92;SDS011;16232;48.800;9.002;2023-12-04T16:19:56;8.47;;;5.63;;
92;SDS011;16232;48.800;9.002;2023-12-04T16:22:25;8.43;;;5.83;;
92;SDS011;16232;48.800;9.002;2023-12-04T16:24:52;8.47;;;6.00;;
92;SDS011;16232;48.800;9.002;2023-12-04T16:27:20;8.10;;;5.43;;
92;SDS011;16232;48.800;9.002;2023-12-04T16:29:47;7.17;;;5.70;;
92;SDS011;16232;48.800;9.002;2023-12-04T16:32:16;7.73;;;6.17;;
92;SDS011;16232;48.800;9.002;2023-12-04T16:34:44;8.37;;;5.90;;